Nearby METAR Reports

 

KSJC - San Jose, California, USA
Distance from station: NØ 14km
Oppdatert: 20/10/2019 13:53
Overskyet
Overskyet
 Vind fra calm
Vind: Stille
Temperatur: 12°C
Duggpunkt: 11°C
Fuktighet: 94%
Barometer: 1019.3 hPa
Clouds: Overskyet
Visibility: 16 km
Cloud details: Overskyet 152 m
2019/10/20 11:53 KSJC 201153Z AUTO 00000KT 10SM OVC005 12/11 A3010 RMK AO2 SLP191 T01220111 10144 20111 51006
KNUQ - Moffett Nas/Mtn, California, USA
Distance from station: N 14km
Oppdatert: 20/10/2019 13:56

 
Barometer: 1019.3 hPa
2019/10/20 11:56 KNUQ 201156Z A3010 RMK AO2 SLP197 51003 PWINO $
 
KPAO - Palo Alto, California, USA
Distance from station: NNV 23km
Oppdatert: 20/10/2019 05:47
NOT Current
Delvis skyet
Delvis skyet
 Vind fra NV
Vind: NV 11 km/h
Temperatur: 14°C
Duggpunkt: 11°C
Fuktighet: 82%
Barometer: 1018.3 hPa
Clouds: Delvis skyet
Visibility: 16 km
Cloud details: Delvis skyet 610 m
2019/10/20 03:47 KPAO 200347Z 32006KT 10SM SCT020 14/11 A3007 RMK LAST
KRHV - San Jose/Reid, California, USA
Distance from station: ØNØ 19km
Oppdatert: 20/10/2019 06:55
NOT Current
Delvis skyet
Delvis skyet
 Vind fra calm
Vind: Stille
Temperatur: 14°C
Duggpunkt: 12°C
Fuktighet: 88%
Barometer: 1018.6 hPa
Clouds: Delvis skyet
Visibility: 16 km
Cloud details: Few Clouds 305 m
Delvis skyet 914 m
2019/10/20 04:55 KRHV 200455Z 00000KT 10SM FEW010 SCT030 14/12 A3008 RMK LAST
 
KOAK - Oakland, California, USA
Distance from station: NNV 50km
Oppdatert: 20/10/2019 13:53
Mist, Klart
Mist, Klart
 Vind fra ØNØ
Vind: ØNØ 6 km/h
Temperatur: 11°C
Duggpunkt: 9°C
Fuktighet: 88%
Barometer: 1019 hPa
Oversikt: Mist
Clouds: Klart
Visibility: 10 km
2019/10/20 11:53 KOAK 201153Z 06003KT 6SM BR CLR 11/09 A3009 RMK AO2 SLP189 T01060094 10144 20100 58001
KSQL - San Carlos Airpo, California, USA
Distance from station: NV 34km
Oppdatert: 20/10/2019 05:47
NOT Current
Delvis skyet
Delvis skyet
 Vind fra calm
Vind: Stille
Temperatur: 14°C
Duggpunkt: 12°C
Fuktighet: 88%
Barometer: 1018.6 hPa
Clouds: Delvis skyet
Visibility: 16 km
Cloud details: Delvis skyet 488 m
2019/10/20 03:47 KSQL 200347Z 00000KT 10SM SCT016 14/12 A3008 RMK LAST
 
KSFO - San Francisco, California, USA
Distance from station: NV 49km
Oppdatert: 20/10/2019 13:56
Few Clouds
Few Clouds
 Vind fra calm
Vind: Stille
Temperatur: 12°C
Duggpunkt: 9°C
Fuktighet: 82%
Barometer: 1018.6 hPa
Clouds: Few Clouds
Visibility: 16 km
Cloud details: Few Clouds 366 m
2019/10/20 11:56 KSFO 201156Z 00000KT 10SM FEW012 12/09 A3008 RMK AO2 SLP187 T01220089 10133 20111 58000
KE16 - San Martin, California, USA
Distance from station: ØSØ 43km
Oppdatert: 20/10/2019 14:15
Overskyet
Overskyet
 Vind fra NNV
Vind: NNV 11 km/h
Temperatur: 13°C
Duggpunkt: 12°C
Fuktighet: 94%
Barometer: 1019.3 hPa
Clouds: Overskyet
Visibility: 16 km
Cloud details: Overskyet 427 m
2019/10/20 12:15 KE16 201215Z AUTO 33006KT 10SM OVC014 13/12 A3010 RMK AO2
 
KWVI - Watsonville, California, USA
Distance from station: SSØ 44km
Oppdatert: 20/10/2019 13:53
Overskyet
Overskyet
 Vind fra calm
Vind: Stille
Temperatur: 14°C
Duggpunkt: 12°C
Fuktighet: 88%
Barometer: 1018.6 hPa
Clouds: Overskyet
Visibility: 16 km
Cloud details: Overskyet 122 m
2019/10/20 11:53 KWVI 201153Z AUTO 00000KT 10SM OVC004 14/12 A3008 RMK AO2 SLP185 T01390122 10144 20139 58000
KHAF - Half Moon Bay, California, USA
Distance from station: VNV 50km
Oppdatert: 20/10/2019 14:20
Tåke, Overskyet
Tåke, Overskyet
 Vind fra NNV
Vind: NNV 6 km/h
Temperatur: 8°C
Duggpunkt: 7°C
Fuktighet: 93%
Barometer: 1019.3 hPa
Oversikt: Tåke
Clouds: Overskyet
Visibility: 0.8 km
Cloud details: Overskyet 61 m
2019/10/20 12:20 KHAF 201220Z AUTO 34003KT 1/2SM FG OVC002 08/07 A3010 RMK AO2
 
KHWD - Hayward, California, USA
Distance from station: N 44km
Oppdatert: 20/10/2019 13:54
Klart
Klart
 Vind fra ØNØ
Vind: ØNØ 7 km/h
Temperatur: 12°C
Duggpunkt: 11°C
Fuktighet: 94%
Barometer: 1019 hPa
Clouds: Klart
Visibility: 16 km
2019/10/20 11:54 KHWD 201154Z AUTO 06004KT 10SM CLR 12/11 A3009 RMK AO2 SLP197 T01220106 10139 20117 50001
KLVK - Livermore, California, USA
Distance from station: NNØ 51km
Oppdatert: 20/10/2019 13:53
Overskyet
Overskyet
 Vind fra SSØ
Vind: SSØ 7 km/h
Temperatur: 11°C
Duggpunkt: 10°C
Fuktighet: 94%
Barometer: 1019 hPa
Clouds: Overskyet
Visibility: 16 km
Cloud details: Overskyet 91 m
2019/10/20 11:53 KLVK 201153Z AUTO 16004KT 10SM OVC003 11/10 A3009 RMK AO2 SLP187 T01060100 10128 20106 55000